TimeCST,TemperatureF,Dew PointF,Humidity,Sea Level PressureIn,VisibilityMPH,Wind Direction,Wind SpeedMPH,Gust SpeedMPH,PrecipitationIn,Events,Conditions,WindDirDegrees,DateUTC
12:55 AM,44.8,43.0,93,30.01,5.0,East,10.4,-,N/A,,Overcast,100,2012-11-10 06:55:00
12:56 AM,44.6,42.8,93,30.01,5.0,East,10.4,-,N/A,,Overcast,100,2012-11-10 06:56:00
1:55 AM,45.0,42.4,91,30.01,6.0,East,9.2,-,N/A,,Overcast,80,2012-11-10 07:55:00
2:55 AM,44.8,42.1,90,29.97,6.0,East,13.8,-,N/A,,Overcast,90,2012-11-10 08:55:00
3:16 AM,44.6,41.0,87,29.95,6.0,East,17.3,-,N/A,,Overcast,100,2012-11-10 09:16:00
3:55 AM,44.4,41.9,91,29.97,6.0,ESE,10.4,-,N/A,,Overcast,110,2012-11-10 09:55:00
4:55 AM,44.6,41.7,90,29.94,6.0,East,11.5,-,N/A,,Overcast,100,2012-11-10 10:55:00
5:14 AM,44.6,41.0,87,29.93,7.0,ESE,13.8,-,N/A,,Overcast,110,2012-11-10 11:14:00
5:55 AM,44.6,41.9,90,29.94,7.0,ESE,9.2,-,N/A,,Overcast,110,2012-11-10 11:55:00
6:19 AM,44.6,42.8,93,29.92,7.0,ESE,11.5,-,N/A,,Mostly Cloudy,110,2012-11-10 12:19:00
6:33 AM,44.6,42.8,93,29.91,6.0,East,10.4,-,N/A,,Scattered Clouds,100,2012-11-10 12:33:00
6:55 AM,45.1,42.3,90,29.91,5.0,ESE,11.5,-,N/A,,Scattered Clouds,110,2012-11-10 12:55:00
7:55 AM,46.0,43.0,89,29.89,5.0,ESE,10.4,-,N/A,,Partly Cloudy,120,2012-11-10 13:55:00
8:55 AM,47.7,43.7,86,29.86,7.0,ESE,11.5,-,N/A,,Scattered Clouds,120,2012-11-10 14:55:00
9:34 AM,50.0,44.6,82,29.84,7.0,ESE,11.5,-,N/A,,Mostly Cloudy,120,2012-11-10 15:34:00
9:55 AM,49.8,45.3,84,29.84,8.0,SE,10.4,-,N/A,,Overcast,130,2012-11-10 15:55:00
10:14 AM,50.0,46.4,87,29.84,8.0,SE,10.4,-,N/A,,Scattered Clouds,130,2012-11-10 16:14:00
10:55 AM,52.3,46.8,81,29.82,9.0,ESE,11.5,-,N/A,,Clear,120,2012-11-10 16:55:00
11:55 AM,57.9,49.3,73,29.76,10.0,SE,12.7,-,N/A,,Partly Cloudy,130,2012-11-10 17:55:00
12:55 PM,62.6,51.8,68,29.72,10.0,ESE,12.7,-,N/A,,Clear,120,2012-11-10 18:55:00
1:55 PM,67.5,54.0,62,29.69,10.0,South,11.5,20.7,N/A,,Partly Cloudy,190,2012-11-10 19:55:00
2:55 PM,67.6,53.4,60,29.70,10.0,South,11.5,21.9,N/A,,Clear,190,2012-11-10 20:55:00
3:55 PM,66.0,52.9,63,29.71,10.0,South,11.5,18.4,N/A,,Clear,170,2012-11-10 21:55:00
4:55 PM,63.1,52.7,69,29.71,10.0,SSE,10.4,-,N/A,,Clear,150,2012-11-10 22:55:00
5:55 PM,63.0,52.9,70,29.68,10.0,SE,16.1,23.0,N/A,,Overcast,140,2012-11-10 23:55:00
6:55 PM,63.3,53.6,71,29.68,10.0,SSE,13.8,-,N/A,,Scattered Clouds,150,2012-11-11 00:55:00
7:55 PM,64.6,54.0,68,29.70,10.0,South,13.8,23.0,N/A,,Scattered Clouds,180,2012-11-11 01:55:00
8:55 PM,65.3,53.6,66,29.68,10.0,South,12.7,20.7,N/A,,Mostly Cloudy,170,2012-11-11 02:55:00
9:55 PM,66.0,52.9,63,29.68,10.0,South,10.4,19.6,N/A,,Mostly Cloudy,170,2012-11-11 03:55:00
10:55 PM,66.0,50.9,58,29.67,10.0,South,16.1,24.2,N/A,,Mostly Cloudy,180,2012-11-11 04:55:00
11:55 PM,66.0,46.8,50,29.67,10.0,South,18.4,28.8,N/A,,Clear,180,2012-11-11 05:55:00